createdAt,value
2022-11-18T00:01:14.796Z,58.00
2022-11-18T00:03:42.808Z,60.15
2022-11-18T00:06:15.213Z,58.70
2022-11-18T00:08:41.991Z,61.05
2022-11-18T00:11:11.087Z,60.78
2022-11-18T00:13:56.602Z,60.92
2022-11-18T00:16:23.499Z,60.88
2022-11-18T00:18:50.536Z,61.90
2022-11-18T00:21:17.115Z,65.25
2022-11-18T00:23:43.633Z,59.90
2022-11-18T00:26:13.434Z,60.67
2022-11-18T00:28:40.834Z,64.00
2022-11-18T00:31:12.878Z,60.53
2022-11-18T00:33:39.693Z,63.53
2022-11-18T00:36:09.319Z,63.75
2022-11-18T00:38:35.827Z,63.38
2022-11-18T00:41:10.251Z,70.55
2022-11-18T00:43:37.570Z,67.07
2022-11-18T00:46:05.178Z,61.47
2022-11-18T00:48:31.606Z,61.03
2022-11-18T00:51:06.435Z,65.13
2022-11-18T00:53:32.831Z,65.30
2022-11-18T00:55:59.236Z,67.15
2022-11-18T00:58:25.742Z,64.68
2022-11-18T01:00:52.898Z,61.55
2022-11-18T01:03:20.741Z,64.18
2022-11-18T01:05:47.484Z,55.90
2022-11-18T01:08:14.795Z,59.72
2022-11-18T01:10:41.503Z,54.63
2022-11-18T01:13:22.966Z,55.85
2022-11-18T01:15:54.830Z,58.72
2022-11-18T01:18:26.767Z,52.67
2022-11-18T01:20:53.575Z,59.15
2022-11-18T01:23:21.081Z,61.15
2022-11-18T01:25:49.153Z,51.40
2022-11-18T01:28:23.042Z,53.30
2022-11-18T01:30:50.336Z,50.38
2022-11-18T01:33:16.803Z,55.13
2022-11-18T01:35:44.565Z,54.70
2022-11-18T01:38:13.477Z,48.63
2022-11-18T01:40:40.372Z,49.80
2022-11-18T01:43:13.850Z,47.13
2022-11-18T01:45:42.351Z,51.13
2022-11-18T01:48:20.655Z,48.42
2022-11-18T01:50:54.329Z,44.83
2022-11-18T01:53:28.841Z,41.72
2022-11-18T01:55:57.907Z,41.92
2022-11-18T01:58:42.314Z,41.88
2022-11-18T02:01:09.319Z,46.58
2022-11-18T02:03:36.605Z,44.47
2022-11-18T02:09:53.041Z,43.72
2022-11-18T02:12:20.654Z,41.95
2022-11-18T02:14:47.957Z,40.75
2022-11-18T02:17:33.178Z,44.75
2022-11-18T02:20:15.505Z,47.30
2022-11-18T02:23:00.760Z,44.50
2022-11-18T02:26:04.863Z,44.80
2022-11-18T02:28:50.218Z,50.15
2022-11-18T02:31:25.627Z,54.10
2022-11-18T02:34:03.701Z,50.10
2022-11-18T02:36:55.166Z,46.22
2022-11-18T02:39:36.539Z,48.63
2022-11-18T02:42:07.951Z,50.67
2022-11-18T02:44:38.291Z,50.20
2022-11-18T02:47:08.086Z,51.92
2022-11-18T02:49:43.265Z,52.20
2022-11-18T02:52:11.871Z,48.67
2022-11-18T02:54:41.819Z,48.78
2022-11-18T02:57:09.112Z,50.95
2022-11-18T02:59:35.625Z,46.85
2022-11-18T03:02:02.132Z,50.97
2022-11-18T03:04:29.409Z,51.85
2022-11-18T03:07:11.130Z,46.55
2022-11-18T03:09:40.756Z,42.92
2022-11-18T03:12:24.203Z,49.00
2022-11-18T03:15:05.915Z,47.45
2022-11-18T03:17:35.028Z,59.13
2022-11-18T03:20:10.472Z,48.65
2022-11-18T03:22:47.067Z,49.75
2022-11-18T03:25:28.864Z,50.50
2022-11-18T03:28:14.751Z,46.53
2022-11-18T03:30:59.084Z,49.53
2022-11-18T03:33:33.015Z,49.15
2022-11-18T03:36:04.083Z,48.00
2022-11-18T03:38:36.575Z,52.60
2022-11-18T03:41:06.501Z,50.15
2022-11-18T03:43:39.280Z,50.88
2022-11-18T03:46:16.908Z,53.47
2022-11-18T03:48:52.963Z,52.80
2022-11-18T03:51:26.277Z,49.13
2022-11-18T03:54:01.047Z,50.28
2022-11-18T03:56:34.919Z,53.83
2022-11-18T03:59:10.392Z,51.53
2022-11-18T04:01:45.890Z,52.72
2022-11-18T04:04:13.382Z,51.60
2022-11-18T04:06:47.175Z,51.70
2022-11-18T04:09:37.712Z,50.47
2022-11-18T04:12:18.669Z,52.00
2022-11-18T04:14:47.942Z,63.85
2022-11-18T04:17:19.738Z,50.40
2022-11-18T04:19:46.182Z,51.05
2022-11-18T04:22:12.865Z,51.45
2022-11-18T04:24:39.845Z,52.10
2022-11-18T04:27:07.145Z,53.38
2022-11-18T04:29:34.202Z,53.53
2022-11-18T04:32:01.826Z,56.88
2022-11-18T04:34:28.622Z,50.35
2022-11-18T04:36:55.091Z,51.03
2022-11-18T04:39:21.512Z,55.13
2022-11-18T04:41:56.715Z,55.38
2022-11-18T04:44:30.116Z,56.38
2022-11-18T04:46:58.027Z,56.72
2022-11-18T04:49:25.915Z,55.03
2022-11-18T04:51:52.775Z,60.00
2022-11-18T04:54:20.023Z,57.08
2022-11-18T04:56:49.714Z,56.97
2022-11-18T04:59:19.654Z,59.90
2022-11-18T05:01:46.509Z,58.95
2022-11-18T05:04:19.840Z,61.78
2022-11-18T05:06:46.536Z,61.70
2022-11-18T05:09:13.250Z,66.18
2022-11-18T05:11:58.365Z,66.95
2022-11-18T05:14:30.894Z,64.90
2022-11-18T05:16:59.331Z,63.47
2022-11-18T05:19:25.944Z,64.65
2022-11-18T05:21:53.199Z,70.50
2022-11-18T05:24:19.986Z,70.45
2022-11-18T05:26:46.814Z,67.47
2022-11-18T05:29:13.538Z,72.53
2022-11-18T05:31:39.935Z,75.43
2022-11-18T05:34:06.386Z,67.95
2022-11-18T05:36:32.833Z,71.63
2022-11-18T05:38:59.965Z,82.70
2022-11-18T05:41:44.848Z,73.97
2022-11-18T05:44:11.314Z,76.18
2022-11-18T05:46:37.785Z,74.65
2022-11-18T05:49:04.245Z,75.40
2022-11-18T05:51:30.708Z,73.55
2022-11-18T05:53:57.636Z,72.88
2022-11-18T05:56:38.422Z,64.60
2022-11-18T05:59:05.391Z,69.53
2022-11-18T06:01:42.009Z,66.75
2022-11-18T06:04:15.048Z,67.00
2022-11-18T06:06:43.052Z,70.50
2022-11-18T06:09:10.628Z,64.93
2022-11-18T06:11:43.249Z,63.15
2022-11-18T06:14:16.285Z,62.70
2022-11-18T06:16:49.160Z,63.70
2022-11-18T06:19:16.904Z,59.50
2022-11-18T06:21:45.070Z,59.20
2022-11-18T06:24:12.454Z,56.85
2022-11-18T06:26:39.510Z,57.65
2022-11-18T06:29:08.346Z,53.58
2022-11-18T06:31:34.806Z,52.42
2022-11-18T06:34:01.456Z,55.15
2022-11-18T06:36:27.854Z,51.30
2022-11-18T06:38:54.333Z,50.60
2022-11-18T06:41:20.781Z,48.03
2022-11-18T06:43:47.243Z,51.10
2022-11-18T06:46:34.538Z,46.60
2022-11-18T06:49:01.587Z,49.20
2022-11-18T06:51:28.903Z,43.10
2022-11-18T06:53:55.457Z,48.58
2022-11-18T06:56:23.088Z,49.25
2022-11-18T06:58:54.789Z,45.38
2022-11-18T07:01:23.741Z,46.58
2022-11-18T07:03:50.766Z,48.08
2022-11-18T07:06:21.202Z,45.47
2022-11-18T07:08:47.857Z,47.35
2022-11-18T07:11:17.145Z,46.03
2022-11-18T07:13:44.196Z,50.40
2022-11-18T07:16:19.527Z,47.25
2022-11-18T07:18:47.449Z,53.40
2022-11-18T07:21:16.499Z,47.30
2022-11-18T07:23:43.226Z,47.70
2022-11-18T07:26:10.324Z,50.20
2022-11-18T07:28:37.109Z,54.22
2022-11-18T07:31:12.294Z,49.35
2022-11-18T07:33:40.218Z,48.40
2022-11-18T07:36:12.516Z,47.90
2022-11-18T07:38:39.377Z,50.35
2022-11-18T07:41:13.774Z,54.33
2022-11-18T07:43:40.652Z,47.25
2022-11-18T07:46:16.862Z,48.70
2022-11-18T07:48:45.337Z,48.15
2022-11-18T07:51:12.551Z,48.20
2022-11-18T07:53:39.133Z,47.97
2022-11-18T07:56:08.107Z,48.92
2022-11-18T07:58:35.656Z,44.80
2022-11-18T08:01:18.986Z,45.60
2022-11-18T08:03:46.437Z,46.08
2022-11-18T08:06:16.439Z,48.13
2022-11-18T08:08:43.469Z,50.80
2022-11-18T08:11:16.292Z,48.03
2022-11-18T08:13:46.994Z,46.42
2022-11-18T08:16:18.777Z,48.75
2022-11-18T08:18:45.565Z,46.78
2022-11-18T08:21:12.965Z,49.53
2022-11-18T08:23:42.289Z,46.40
2022-11-18T08:26:16.101Z,49.00
2022-11-18T08:28:43.498Z,46.17
2022-11-18T08:31:10.906Z,46.58
2022-11-18T08:33:37.993Z,45.63
2022-11-18T08:36:18.393Z,45.03
2022-11-18T08:38:44.933Z,46.25
2022-11-18T08:41:14.275Z,42.90
2022-11-18T08:43:40.706Z,38.42
2022-11-18T08:46:07.226Z,42.72
2022-11-18T08:48:33.790Z,42.53
2022-11-18T08:51:01.015Z,44.20
2022-11-18T08:53:27.506Z,44.40
2022-11-18T08:55:57.855Z,41.05
2022-11-18T08:58:25.213Z,42.92
2022-11-18T09:00:51.749Z,43.22
2022-11-18T09:03:18.737Z,41.92
2022-11-18T09:05:45.749Z,37.03
2022-11-18T09:08:12.277Z,39.10
2022-11-18T09:10:39.041Z,41.72
2022-11-18T09:13:25.207Z,46.95
2022-11-18T09:15:51.985Z,39.58
2022-11-18T09:18:18.464Z,36.05
2022-11-18T09:20:56.922Z,39.03
2022-11-18T09:23:23.735Z,40.95
2022-11-18T09:26:00.168Z,37.00
2022-11-18T09:28:26.961Z,34.72
2022-11-18T09:30:53.371Z,36.78
2022-11-18T09:33:20.732Z,36.42
2022-11-18T09:35:47.556Z,39.65
2022-11-18T09:38:14.049Z,37.45
2022-11-18T09:41:10.392Z,35.35
2022-11-18T09:43:50.064Z,38.80
2022-11-18T09:46:27.618Z,38.30
2022-11-18T09:49:12.699Z,37.28
2022-11-18T09:51:45.137Z,34.95
2022-11-18T09:54:17.937Z,39.97
2022-11-18T09:56:44.517Z,34.80
2022-11-18T09:59:14.273Z,34.72
2022-11-18T10:01:42.726Z,29.40
2022-11-18T10:04:15.576Z,32.10
2022-11-18T10:06:42.542Z,27.50
2022-11-18T10:09:30.452Z,24.65
2022-11-18T10:12:08.490Z,28.83
2022-11-18T10:15:02.607Z,26.95
2022-11-18T10:17:41.239Z,25.88
2022-11-18T10:20:22.779Z,26.17
2022-11-18T10:25:21.164Z,16.98
2022-11-18T10:27:49.523Z,22.98
2022-11-18T10:30:21.564Z,21.08
2022-11-18T10:33:17.559Z,19.35
2022-11-18T10:35:44.032Z,26.83
2022-11-18T10:38:13.436Z,20.98
2022-11-18T10:41:00.505Z,18.45
2022-11-18T10:43:50.337Z,20.40
2022-11-18T10:46:28.584Z,18.30
2022-11-18T10:49:12.621Z,19.08
2022-11-18T10:52:14.932Z,18.38
2022-11-18T10:54:42.336Z,18.70
2022-11-18T10:57:23.866Z,18.15
2022-11-18T11:02:32.825Z,20.98
2022-11-18T11:05:02.777Z,18.13
2022-11-18T11:07:32.693Z,20.00
2022-11-18T11:10:23.427Z,19.92
2022-11-18T11:12:59.227Z,16.98
2022-11-18T11:15:48.308Z,18.58
2022-11-18T11:18:39.412Z,19.92
2022-11-18T11:21:13.934Z,16.08
2022-11-18T11:23:41.588Z,15.98
2022-11-18T11:29:10.501Z,18.35
2022-11-18T11:31:46.200Z,21.45
2022-11-18T11:34:43.064Z,19.80
2022-11-18T11:37:09.429Z,23.13
2022-11-18T11:40:11.306Z,20.13
2022-11-18T11:42:43.671Z,19.77
2022-11-18T11:45:28.703Z,18.95
2022-11-18T11:48:03.123Z,20.83
2022-11-18T11:51:03.454Z,22.00
2022-11-18T11:54:04.833Z,20.48
2022-11-18T11:56:33.939Z,22.05
2022-11-18T11:59:18.617Z,18.45
2022-11-18T12:02:09.653Z,22.67
2022-11-18T12:04:42.475Z,16.98
2022-11-18T12:07:17.194Z,19.52
2022-11-18T12:10:06.712Z,23.80
2022-11-18T12:12:50.211Z,24.55
2022-11-18T12:15:26.025Z,19.75
2022-11-18T12:18:04.233Z,18.55
2022-11-18T12:20:44.869Z,20.33
2022-11-18T12:23:17.785Z,17.13
2022-11-18T12:25:52.968Z,21.92
2022-11-18T12:28:24.852Z,19.20
2022-11-18T12:31:18.025Z,20.08
2022-11-18T12:34:02.107Z,21.35
2022-11-18T12:36:34.235Z,20.45
2022-11-18T12:39:25.601Z,21.92
2022-11-18T12:42:11.823Z,19.75
2022-11-18T12:44:39.446Z,15.77
2022-11-18T12:47:10.678Z,18.17
2022-11-18T12:49:37.033Z,14.30
2022-11-18T12:52:29.074Z,18.70
2022-11-18T12:55:02.847Z,14.18
2022-11-18T12:57:32.647Z,16.08
2022-11-18T13:00:14.861Z,16.05
2022-11-18T13:02:54.690Z,20.40
2022-11-18T13:05:23.413Z,15.65
2022-11-18T13:08:12.332Z,17.10
2022-11-18T13:11:37.080Z,14.98
2022-11-18T13:14:26.297Z,13.48
2022-11-18T13:17:11.351Z,14.65
2022-11-18T13:19:37.834Z,15.07
2022-11-18T13:22:22.611Z,14.35
2022-11-18T13:24:52.119Z,15.55
2022-11-18T13:27:30.500Z,15.32
2022-11-18T13:30:10.026Z,17.65
2022-11-18T13:32:36.585Z,16.98
2022-11-18T13:35:13.598Z,10.85
2022-11-18T13:37:59.144Z,11.90
2022-11-18T13:40:29.574Z,12.20
2022-11-18T13:42:56.210Z,11.82
2022-11-18T13:45:28.160Z,14.27
2022-11-18T13:48:05.667Z,17.38
2022-11-18T13:50:51.159Z,12.80
2022-11-18T13:53:26.382Z,13.50
2022-11-18T13:56:06.014Z,14.30
2022-11-18T13:59:02.652Z,15.85
2022-11-18T14:01:28.672Z,14.52
2022-11-18T14:04:02.162Z,13.25
2022-11-18T14:06:31.921Z,12.25
2022-11-18T14:09:06.069Z,15.77
2022-11-18T14:11:42.075Z,13.68
2022-11-18T14:14:27.024Z,10.32
2022-11-18T14:16:53.710Z,11.05
2022-11-18T14:19:32.315Z,14.10
2022-11-18T14:22:13.174Z,12.68
2022-11-18T14:24:40.754Z,9.30
2022-11-18T14:27:28.624Z,11.27
2022-11-18T14:29:55.609Z,11.70
2022-11-18T14:32:23.364Z,10.50
2022-11-18T14:35:00.014Z,10.93
2022-11-18T14:37:27.119Z,11.25
2022-11-18T14:39:57.948Z,8.93
2022-11-18T14:42:25.019Z,14.57
2022-11-18T14:44:51.448Z,16.27
2022-11-18T14:47:30.267Z,12.57
2022-11-18T14:49:56.663Z,10.60
2022-11-18T14:52:23.087Z,11.65
2022-11-18T14:54:49.546Z,17.00
2022-11-18T14:57:17.554Z,10.43
2022-11-18T14:59:44.036Z,11.90
2022-11-18T15:02:16.585Z,14.02
2022-11-18T15:04:43.538Z,11.48
2022-11-18T15:07:18.522Z,7.80
2022-11-18T15:09:49.515Z,11.15
2022-11-18T15:12:15.921Z,8.30
2022-11-18T15:14:42.318Z,7.78
2022-11-18T15:17:11.956Z,8.38
2022-11-18T15:19:38.412Z,7.35
2022-11-18T15:22:04.815Z,9.35
2022-11-18T15:24:31.561Z,8.73
2022-11-18T15:26:57.953Z,9.05
2022-11-18T15:29:25.353Z,10.18
2022-11-18T15:31:52.213Z,6.30
2022-11-18T15:34:20.427Z,6.78
2022-11-18T15:36:47.749Z,8.50
2022-11-18T15:39:14.178Z,8.88
2022-11-18T15:41:42.892Z,7.60
2022-11-18T15:44:10.610Z,9.35
2022-11-18T15:46:37.035Z,10.10
2022-11-18T15:49:04.356Z,8.10
2022-11-18T15:51:31.542Z,9.70
2022-11-18T15:53:58.478Z,12.20
2022-11-18T15:56:30.363Z,11.98
2022-11-18T15:59:06.775Z,13.98
2022-11-18T16:01:35.656Z,15.82
2022-11-18T16:04:03.029Z,10.30
2022-11-18T16:06:30.009Z,14.30
2022-11-18T16:09:00.037Z,12.95
2022-11-18T16:11:46.340Z,12.80
2022-11-18T16:14:14.217Z,12.07
2022-11-18T16:16:42.102Z,14.45
2022-11-18T16:19:11.135Z,11.52
2022-11-18T16:21:43.481Z,10.20
2022-11-18T16:24:18.930Z,14.55
2022-11-18T16:26:45.634Z,20.60
2022-11-18T16:29:12.874Z,17.65
2022-11-18T16:31:43.639Z,15.95
2022-11-18T16:34:23.927Z,15.63
2022-11-18T16:36:52.737Z,17.17
2022-11-18T16:39:25.798Z,17.77
2022-11-18T16:42:07.281Z,18.05
2022-11-18T16:44:35.060Z,17.20
2022-11-18T16:47:01.717Z,18.60
2022-11-18T16:49:28.350Z,18.83
2022-11-18T16:51:56.572Z,14.02
2022-11-18T16:54:24.608Z,17.08
2022-11-18T16:56:52.523Z,14.98
2022-11-18T16:59:24.063Z,14.13
2022-11-18T17:01:52.288Z,11.15
2022-11-18T17:04:19.740Z,12.65
2022-11-18T17:06:46.568Z,12.25
2022-11-18T17:09:18.731Z,16.15
2022-11-18T17:11:45.493Z,16.40
2022-11-18T17:14:12.407Z,12.50
2022-11-18T17:16:39.071Z,9.95
2022-11-18T17:19:11.633Z,12.40
2022-11-18T17:21:38.812Z,12.30
2022-11-18T17:24:05.841Z,12.23
2022-11-18T17:26:32.290Z,13.45
2022-11-18T17:28:58.737Z,13.15
2022-11-18T17:31:25.990Z,13.65
2022-11-18T17:33:55.176Z,11.48
2022-11-18T17:36:24.061Z,13.13
2022-11-18T17:38:52.608Z,12.07
2022-11-18T17:41:39.887Z,14.77
2022-11-18T17:44:08.688Z,13.93
2022-11-18T17:46:38.284Z,15.25
2022-11-18T17:49:13.749Z,13.32
2022-11-18T17:51:40.661Z,17.02
2022-11-18T17:54:07.887Z,18.92
2022-11-18T17:56:34.537Z,14.63
2022-11-18T17:59:01.166Z,18.67
2022-11-18T18:01:27.800Z,12.13
2022-11-18T18:03:54.332Z,16.00
2022-11-18T18:06:21.446Z,14.50
2022-11-18T18:08:47.836Z,15.88
2022-11-18T18:11:19.133Z,15.55
2022-11-18T18:14:04.112Z,13.93
2022-11-18T18:16:32.348Z,14.23
2022-11-18T18:18:59.927Z,15.55
2022-11-18T18:21:27.179Z,21.85
2022-11-18T18:23:54.085Z,21.08
2022-11-18T18:26:20.580Z,17.55
2022-11-18T18:28:47.863Z,21.05
2022-11-18T18:31:16.325Z,24.25
2022-11-18T18:33:43.199Z,20.23
2022-11-18T18:36:12.657Z,21.02
2022-11-18T18:38:40.375Z,17.52
2022-11-18T18:41:09.704Z,19.13
2022-11-18T18:43:36.220Z,20.63
2022-11-18T18:46:23.267Z,15.60
2022-11-18T18:48:49.752Z,17.70
2022-11-18T18:51:17.098Z,32.90
2022-11-18T18:53:43.953Z,16.30
2022-11-18T18:56:10.626Z,19.88
2022-11-18T18:58:37.430Z,16.63
2022-11-18T19:01:11.260Z,17.38
2022-11-18T19:03:38.158Z,17.35
2022-11-18T19:06:41.915Z,17.25
2022-11-18T19:09:01.141Z,20.77
2022-11-18T19:11:46.656Z,20.88
2022-11-18T19:14:16.249Z,21.50
2022-11-18T19:16:43.010Z,24.08
2022-11-18T19:19:13.771Z,21.92
2022-11-18T19:21:40.308Z,20.67
2022-11-18T19:24:23.155Z,27.02
2022-11-18T19:26:55.306Z,26.60
2022-11-18T19:29:25.585Z,22.77
2022-11-18T19:31:52.327Z,24.97
2022-11-18T19:34:19.053Z,24.55
2022-11-18T19:36:45.722Z,30.05
2022-11-18T19:39:12.286Z,24.00
2022-11-18T19:41:38.690Z,24.02
2022-11-18T19:44:05.831Z,31.13
2022-11-18T19:46:32.307Z,22.13
2022-11-18T19:48:59.045Z,23.45
2022-11-18T19:51:25.852Z,23.55
2022-11-18T19:53:57.014Z,24.90
2022-11-18T19:56:26.113Z,20.27
2022-11-18T19:58:54.782Z,24.40
2022-11-18T20:01:27.480Z,21.80
2022-11-18T20:03:57.628Z,24.38
2022-11-18T20:06:25.951Z,23.23
2022-11-18T20:08:53.663Z,25.48
2022-11-18T20:11:21.470Z,19.52
2022-11-18T20:13:48.213Z,17.70
2022-11-18T20:16:17.794Z,30.45
2022-11-18T20:18:47.493Z,30.08
2022-11-18T20:21:19.824Z,24.33
2022-11-18T20:23:51.794Z,24.98
2022-11-18T20:26:20.554Z,21.15
2022-11-18T20:28:52.971Z,19.52
2022-11-18T20:31:23.131Z,24.02
2022-11-18T20:33:51.755Z,23.98
2022-11-18T20:36:23.992Z,23.33
2022-11-18T20:38:55.907Z,32.28
2022-11-18T20:41:23.500Z,22.75
2022-11-18T20:43:50.198Z,22.77
2022-11-18T20:46:20.749Z,24.70
2022-11-18T20:48:48.750Z,40.17
2022-11-18T20:51:23.470Z,37.00
2022-11-18T20:53:51.090Z,26.75
2022-11-18T20:56:19.811Z,25.00
2022-11-18T20:58:46.282Z,26.67
2022-11-18T21:01:15.792Z,33.35
2022-11-18T21:03:47.337Z,33.78
2022-11-18T21:08:42.643Z,26.90
2022-11-18T21:11:12.565Z,24.90
2022-11-18T21:13:58.161Z,30.23
2022-11-18T21:16:25.963Z,26.77
2022-11-18T21:18:52.473Z,28.23
2022-11-18T21:21:37.845Z,37.42
2022-11-18T21:24:04.547Z,33.42
2022-11-18T21:26:32.604Z,25.80
2022-11-18T21:29:01.255Z,27.23
2022-11-18T21:31:29.181Z,26.13
2022-11-18T21:33:56.941Z,28.98
2022-11-18T21:36:25.284Z,28.58
2022-11-18T21:38:52.164Z,27.27
2022-11-18T21:41:19.125Z,23.70
2022-11-18T21:46:34.780Z,21.45
2022-11-18T21:49:02.035Z,21.50
2022-11-18T21:51:28.564Z,25.42
2022-11-18T21:53:55.147Z,25.50
2022-11-18T21:56:25.070Z,21.58
2022-11-18T21:58:52.590Z,24.50
2022-11-18T22:01:24.525Z,23.77
2022-11-18T22:03:56.031Z,22.52
2022-11-18T22:06:24.453Z,22.70
2022-11-18T22:08:52.004Z,29.90
2022-11-18T22:11:20.334Z,20.40
2022-11-18T22:13:47.031Z,19.98
2022-11-18T22:16:16.280Z,25.25
2022-11-18T22:18:45.064Z,24.02
2022-11-18T22:21:20.370Z,22.30
2022-11-18T22:23:47.589Z,20.38
2022-11-18T22:26:21.411Z,23.33
2022-11-18T22:28:53.473Z,25.02
2022-11-18T22:31:21.467Z,26.23
2022-11-18T22:33:49.640Z,24.98
2022-11-18T22:36:17.786Z,23.45
2022-11-18T22:38:45.136Z,21.45
2022-11-18T22:41:35.714Z,23.52
2022-11-18T22:44:07.435Z,27.42
2022-11-18T22:46:36.133Z,19.98
2022-11-18T22:49:02.719Z,24.88
2022-11-18T22:51:29.174Z,18.42
2022-11-18T22:54:16.000Z,20.70
2022-11-18T22:56:42.326Z,23.75
2022-11-18T22:59:10.595Z,26.15
2022-11-18T23:01:37.069Z,22.63
2022-11-18T23:04:03.661Z,21.73
2022-11-18T23:06:30.272Z,21.42
2022-11-18T23:08:56.709Z,22.20
2022-11-18T23:11:41.369Z,18.73
2022-11-18T23:14:10.012Z,23.88
2022-11-18T23:16:39.446Z,23.75
2022-11-18T23:19:11.961Z,22.50
2022-11-18T23:21:38.384Z,22.50
2022-11-18T23:24:05.515Z,21.75
2022-11-18T23:26:32.169Z,22.25
2022-11-18T23:28:58.921Z,19.80
2022-11-18T23:31:27.035Z,20.70
2022-11-18T23:33:55.317Z,20.05
2022-11-18T23:36:22.537Z,24.85
2022-11-18T23:38:49.264Z,24.83
2022-11-18T23:41:18.845Z,21.30
2022-11-18T23:43:47.166Z,24.35
2022-11-18T23:46:14.719Z,23.58
2022-11-18T23:48:42.775Z,25.45
2022-11-18T23:51:10.480Z,28.83
2022-11-18T23:53:38.136Z,25.33
2022-11-18T23:56:07.858Z,27.92
2022-11-18T23:58:34.262Z,25.92
